sensor_id;sensor_type;location;lat;lon;timestamp;temperature;humidity
80250;DHT22;69561;37.974;23.708;2023-06-01T00:00:33;26.60;50.30
80250;DHT22;69561;37.974;23.708;2023-06-01T00:02:59;26.60;50.40
80250;DHT22;69561;37.974;23.708;2023-06-01T00:05:25;26.60;50.40
80250;DHT22;69561;37.974;23.708;2023-06-01T00:07:51;26.60;50.50
80250;DHT22;69561;37.974;23.708;2023-06-01T00:10:16;26.60;50.40
80250;DHT22;69561;37.974;23.708;2023-06-01T00:12:42;26.60;50.50
80250;DHT22;69561;37.974;23.708;2023-06-01T00:15:09;26.60;50.50
80250;DHT22;69561;37.974;23.708;2023-06-01T00:17:35;26.60;50.50
80250;DHT22;69561;37.974;23.708;2023-06-01T00:20:01;26.60;50.50
80250;DHT22;69561;37.974;23.708;2023-06-01T00:22:27;26.60;50.60
80250;DHT22;69561;37.974;23.708;2023-06-01T00:25:00;26.60;50.60
80250;DHT22;69561;37.974;23.708;2023-06-01T00:27:26;26.50;50.60
80250;DHT22;69561;37.974;23.708;2023-06-01T00:29:51;26.60;50.70
80250;DHT22;69561;37.974;23.708;2023-06-01T00:32:17;26.60;50.70
80250;DHT22;69561;37.974;23.708;2023-06-01T00:34:43;26.60;50.70
80250;DHT22;69561;37.974;23.708;2023-06-01T00:37:09;26.50;50.70
80250;DHT22;69561;37.974;23.708;2023-06-01T00:39:34;26.50;50.70
80250;DHT22;69561;37.974;23.708;2023-06-01T00:42:00;26.60;50.80
80250;DHT22;69561;37.974;23.708;2023-06-01T00:44:27;26.50;50.70
80250;DHT22;69561;37.974;23.708;2023-06-01T00:46:53;26.60;50.80
80250;DHT22;69561;37.974;23.708;2023-06-01T00:49:18;26.50;50.80
80250;DHT22;69561;37.974;23.708;2023-06-01T00:51:44;26.50;50.80
80250;DHT22;69561;37.974;23.708;2023-06-01T00:54:10;26.60;50.90
80250;DHT22;69561;37.974;23.708;2023-06-01T00:56:37;26.50;50.80
80250;DHT22;69561;37.974;23.708;2023-06-01T00:59:03;26.50;50.90
80250;DHT22;69561;37.974;23.708;2023-06-01T01:01:29;26.50;50.90
80250;DHT22;69561;37.974;23.708;2023-06-01T01:03:54;26.50;51.00
80250;DHT22;69561;37.974;23.708;2023-06-01T01:09:26;26.50;51.00
80250;DHT22;69561;37.974;23.708;2023-06-01T01:12:03;26.50;51.10
80250;DHT22;69561;37.974;23.708;2023-06-01T01:14:50;26.50;51.20
80250;DHT22;69561;37.974;23.708;2023-06-01T01:17:26;26.50;51.10
80250;DHT22;69561;37.974;23.708;2023-06-01T01:20:10;26.50;51.20
80250;DHT22;69561;37.974;23.708;2023-06-01T01:23:06;26.50;51.20
80250;DHT22;69561;37.974;23.708;2023-06-01T01:28:49;26.40;51.20
80250;DHT22;69561;37.974;23.708;2023-06-01T01:31:18;26.50;51.30
80250;DHT22;69561;37.974;23.708;2023-06-01T01:33:46;26.50;51.30
80250;DHT22;69561;37.974;23.708;2023-06-01T01:36:13;26.50;51.20
80250;DHT22;69561;37.974;23.708;2023-06-01T01:38:39;26.50;51.20
80250;DHT22;69561;37.974;23.708;2023-06-01T01:41:05;26.50;51.20
80250;DHT22;69561;37.974;23.708;2023-06-01T01:43:31;26.50;51.20
80250;DHT22;69561;37.974;23.708;2023-06-01T01:48:44;26.50;51.10
80250;DHT22;69561;37.974;23.708;2023-06-01T01:51:15;26.50;51.20
80250;DHT22;69561;37.974;23.708;2023-06-01T01:53:41;26.50;51.10
80250;DHT22;69561;37.974;23.708;2023-06-01T01:56:09;26.50;51.20
80250;DHT22;69561;37.974;23.708;2023-06-01T01:58:35;26.40;51.20
80250;DHT22;69561;37.974;23.708;2023-06-01T02:01:02;26.50;51.30
80250;DHT22;69561;37.974;23.708;2023-06-01T02:03:28;26.50;52.30
80250;DHT22;69561;37.974;23.708;2023-06-01T02:05:54;26.50;51.20
80250;DHT22;69561;37.974;23.708;2023-06-01T02:08:20;26.50;51.20
80250;DHT22;69561;37.974;23.708;2023-06-01T02:10:46;26.50;51.20
80250;DHT22;69561;37.974;23.708;2023-06-01T02:13:11;26.50;51.20
80250;DHT22;69561;37.974;23.708;2023-06-01T02:15:37;26.50;51.20
80250;DHT22;69561;37.974;23.708;2023-06-01T02:18:03;26.50;51.10
80250;DHT22;69561;37.974;23.708;2023-06-01T02:20:29;26.50;51.10
80250;DHT22;69561;37.974;23.708;2023-06-01T02:22:54;26.50;52.00
80250;DHT22;69561;37.974;23.708;2023-06-01T02:25:20;26.50;51.10
80250;DHT22;69561;37.974;23.708;2023-06-01T02:27:46;26.50;51.00
80250;DHT22;69561;37.974;23.708;2023-06-01T02:30:12;26.50;51.00
80250;DHT22;69561;37.974;23.708;2023-06-01T02:32:38;26.50;51.00
80250;DHT22;69561;37.974;23.708;2023-06-01T02:35:04;26.50;51.00
80250;DHT22;69561;37.974;23.708;2023-06-01T02:37:31;26.50;51.00
80250;DHT22;69561;37.974;23.708;2023-06-01T02:39:57;26.50;50.90
80250;DHT22;69561;37.974;23.708;2023-06-01T02:42:23;26.40;50.90
80250;DHT22;69561;37.974;23.708;2023-06-01T02:44:48;26.40;50.90
80250;DHT22;69561;37.974;23.708;2023-06-01T02:47:14;26.50;50.90
80250;DHT22;69561;37.974;23.708;2023-06-01T02:49:40;26.40;50.80
80250;DHT22;69561;37.974;23.708;2023-06-01T02:52:06;26.40;50.70
80250;DHT22;69561;37.974;23.708;2023-06-01T02:54:31;26.50;50.70
80250;DHT22;69561;37.974;23.708;2023-06-01T02:56:57;26.50;51.70
80250;DHT22;69561;37.974;23.708;2023-06-01T02:59:23;26.40;50.60
80250;DHT22;69561;37.974;23.708;2023-06-01T03:01:48;26.40;50.60
80250;DHT22;69561;37.974;23.708;2023-06-01T03:04:14;26.40;50.60
80250;DHT22;69561;37.974;23.708;2023-06-01T03:06:40;26.40;50.60
80250;DHT22;69561;37.974;23.708;2023-06-01T03:09:06;26.40;50.50
80250;DHT22;69561;37.974;23.708;2023-06-01T03:11:41;26.40;50.50
80250;DHT22;69561;37.974;23.708;2023-06-01T03:14:06;26.40;50.50
80250;DHT22;69561;37.974;23.708;2023-06-01T03:16:32;26.40;50.50
80250;DHT22;69561;37.974;23.708;2023-06-01T03:18:58;26.40;50.40
80250;DHT22;69561;37.974;23.708;2023-06-01T03:21:23;26.40;50.40
80250;DHT22;69561;37.974;23.708;2023-06-01T03:23:50;26.40;50.40
80250;DHT22;69561;37.974;23.708;2023-06-01T03:26:16;26.50;50.30
80250;DHT22;69561;37.974;23.708;2023-06-01T03:28:44;26.50;50.30
80250;DHT22;69561;37.974;23.708;2023-06-01T03:31:10;26.40;50.20
80250;DHT22;69561;37.974;23.708;2023-06-01T03:33:37;26.50;50.30
80250;DHT22;69561;37.974;23.708;2023-06-01T03:36:03;26.50;50.20
80250;DHT22;69561;37.974;23.708;2023-06-01T03:38:30;26.60;50.20
80250;DHT22;69561;37.974;23.708;2023-06-01T03:40:56;26.60;50.10
80250;DHT22;69561;37.974;23.708;2023-06-01T03:43:21;26.60;49.90
80250;DHT22;69561;37.974;23.708;2023-06-01T03:45:47;26.70;49.80
80250;DHT22;69561;37.974;23.708;2023-06-01T03:48:13;26.90;49.60
80250;DHT22;69561;37.974;23.708;2023-06-01T03:50:39;27.00;49.40
80250;DHT22;69561;37.974;23.708;2023-06-01T03:53:05;27.10;49.00
80250;DHT22;69561;37.974;23.708;2023-06-01T03:55:30;27.00;49.10
80250;DHT22;69561;37.974;23.708;2023-06-01T03:57:56;27.00;49.20
80250;DHT22;69561;37.974;23.708;2023-06-01T04:00:22;27.00;49.40
80250;DHT22;69561;37.974;23.708;2023-06-01T04:02:50;27.00;49.40
80250;DHT22;69561;37.974;23.708;2023-06-01T04:05:18;26.90;49.30
80250;DHT22;69561;37.974;23.708;2023-06-01T04:07:45;27.00;49.40
80250;DHT22;69561;37.974;23.708;2023-06-01T04:10:12;26.90;49.60
80250;DHT22;69561;37.974;23.708;2023-06-01T04:12:42;26.80;49.80
80250;DHT22;69561;37.974;23.708;2023-06-01T04:15:14;26.80;49.80
80250;DHT22;69561;37.974;23.708;2023-06-01T04:17:40;26.80;49.90
80250;DHT22;69561;37.974;23.708;2023-06-01T04:20:09;26.80;50.10
80250;DHT22;69561;37.974;23.708;2023-06-01T04:22:39;26.70;50.10
80250;DHT22;69561;37.974;23.708;2023-06-01T04:25:10;26.70;50.20
80250;DHT22;69561;37.974;23.708;2023-06-01T04:27:51;26.80;50.20
80250;DHT22;69561;37.974;23.708;2023-06-01T04:30:17;26.80;50.20
80250;DHT22;69561;37.974;23.708;2023-06-01T04:32:43;26.80;50.20
80250;DHT22;69561;37.974;23.708;2023-06-01T04:35:13;26.90;50.10
80250;DHT22;69561;37.974;23.708;2023-06-01T04:37:40;26.90;49.90
80250;DHT22;69561;37.974;23.708;2023-06-01T04:40:08;26.90;49.80
80250;DHT22;69561;37.974;23.708;2023-06-01T04:42:39;26.90;49.70
80250;DHT22;69561;37.974;23.708;2023-06-01T04:45:11;26.90;49.70
80250;DHT22;69561;37.974;23.708;2023-06-01T04:47:37;27.00;49.60
80250;DHT22;69561;37.974;23.708;2023-06-01T04:50:06;27.00;49.50
80250;DHT22;69561;37.974;23.708;2023-06-01T04:52:34;27.00;49.50
80250;DHT22;69561;37.974;23.708;2023-06-01T04:55:00;27.00;49.50
80250;DHT22;69561;37.974;23.708;2023-06-01T04:57:26;27.00;49.50
80250;DHT22;69561;37.974;23.708;2023-06-01T04:59:51;27.00;49.50
80250;DHT22;69561;37.974;23.708;2023-06-01T05:02:24;27.00;49.30
80250;DHT22;69561;37.974;23.708;2023-06-01T05:04:50;27.00;49.30
80250;DHT22;69561;37.974;23.708;2023-06-01T05:07:16;27.10;49.20
80250;DHT22;69561;37.974;23.708;2023-06-01T05:09:41;27.10;49.10
80250;DHT22;69561;37.974;23.708;2023-06-01T05:12:07;27.20;49.10
80250;DHT22;69561;37.974;23.708;2023-06-01T05:14:33;27.20;49.10
80250;DHT22;69561;37.974;23.708;2023-06-01T05:16:59;27.10;48.90
80250;DHT22;69561;37.974;23.708;2023-06-01T05:19:25;27.20;48.90
80250;DHT22;69561;37.974;23.708;2023-06-01T05:21:51;27.20;48.70
80250;DHT22;69561;37.974;23.708;2023-06-01T05:24:18;27.20;48.40
80250;DHT22;69561;37.974;23.708;2023-06-01T05:26:43;27.30;48.40
80250;DHT22;69561;37.974;23.708;2023-06-01T05:29:09;27.30;48.20
80250;DHT22;69561;37.974;23.708;2023-06-01T05:31:35;27.30;48.00
80250;DHT22;69561;37.974;23.708;2023-06-01T05:34:01;27.30;47.80
80250;DHT22;69561;37.974;23.708;2023-06-01T05:36:27;27.30;47.70
80250;DHT22;69561;37.974;23.708;2023-06-01T05:38:53;27.30;47.40
80250;DHT22;69561;37.974;23.708;2023-06-01T05:41:19;27.40;47.30
80250;DHT22;69561;37.974;23.708;2023-06-01T05:43:45;27.30;47.00
80250;DHT22;69561;37.974;23.708;2023-06-01T05:46:11;27.40;46.90
80250;DHT22;69561;37.974;23.708;2023-06-01T05:48:36;27.40;46.80
80250;DHT22;69561;37.974;23.708;2023-06-01T05:51:02;27.40;46.70
80250;DHT22;69561;37.974;23.708;2023-06-01T05:53:28;27.40;46.60
80250;DHT22;69561;37.974;23.708;2023-06-01T05:55:55;27.50;46.60
80250;DHT22;69561;37.974;23.708;2023-06-01T05:58:20;27.50;46.60
80250;DHT22;69561;37.974;23.708;2023-06-01T06:00:46;27.40;46.50
80250;DHT22;69561;37.974;23.708;2023-06-01T06:03:12;27.40;46.50
80250;DHT22;69561;37.974;23.708;2023-06-01T06:05:38;27.50;46.50
80250;DHT22;69561;37.974;23.708;2023-06-01T06:08:04;27.40;46.40
80250;DHT22;69561;37.974;23.708;2023-06-01T06:10:30;27.50;46.60
80250;DHT22;69561;37.974;23.708;2023-06-01T06:12:55;27.50;46.50
80250;DHT22;69561;37.974;23.708;2023-06-01T06:15:21;27.50;46.50
80250;DHT22;69561;37.974;23.708;2023-06-01T06:17:47;27.50;46.40
80250;DHT22;69561;37.974;23.708;2023-06-01T06:20:12;27.50;46.40
80250;DHT22;69561;37.974;23.708;2023-06-01T06:22:41;27.50;46.20
80250;DHT22;69561;37.974;23.708;2023-06-01T06:25:07;27.50;45.80
80250;DHT22;69561;37.974;23.708;2023-06-01T06:27:34;27.50;45.40
80250;DHT22;69561;37.974;23.708;2023-06-01T06:30:00;27.50;45.10
80250;DHT22;69561;37.974;23.708;2023-06-01T06:32:25;27.50;44.80
80250;DHT22;69561;37.974;23.708;2023-06-01T06:34:51;27.50;44.20
80250;DHT22;69561;37.974;23.708;2023-06-01T06:37:17;27.50;44.20
80250;DHT22;69561;37.974;23.708;2023-06-01T06:39:44;27.60;43.60
80250;DHT22;69561;37.974;23.708;2023-06-01T06:42:10;27.60;43.60
80250;DHT22;69561;37.974;23.708;2023-06-01T06:44:35;27.60;43.50
80250;DHT22;69561;37.974;23.708;2023-06-01T06:47:01;27.60;43.20
80250;DHT22;69561;37.974;23.708;2023-06-01T06:49:27;27.60;43.20
80250;DHT22;69561;37.974;23.708;2023-06-01T06:51:53;27.60;42.80
80250;DHT22;69561;37.974;23.708;2023-06-01T06:54:18;27.60;42.90
80250;DHT22;69561;37.974;23.708;2023-06-01T06:56:44;27.60;42.70
80250;DHT22;69561;37.974;23.708;2023-06-01T06:59:10;27.60;42.60
80250;DHT22;69561;37.974;23.708;2023-06-01T07:01:36;27.60;42.50
80250;DHT22;69561;37.974;23.708;2023-06-01T07:04:04;27.60;42.60
80250;DHT22;69561;37.974;23.708;2023-06-01T07:06:31;27.60;42.60
80250;DHT22;69561;37.974;23.708;2023-06-01T07:08:58;27.60;42.60
80250;DHT22;69561;37.974;23.708;2023-06-01T07:11:24;27.60;42.60
80250;DHT22;69561;37.974;23.708;2023-06-01T07:13:52;27.60;42.60
80250;DHT22;69561;37.974;23.708;2023-06-01T07:16:18;27.70;42.60
80250;DHT22;69561;37.974;23.708;2023-06-01T07:18:44;27.70;42.60
80250;DHT22;69561;37.974;23.708;2023-06-01T07:21:10;27.80;42.70
80250;DHT22;69561;37.974;23.708;2023-06-01T07:23:35;27.80;42.70
80250;DHT22;69561;37.974;23.708;2023-06-01T07:26:01;27.90;42.80
80250;DHT22;69561;37.974;23.708;2023-06-01T07:28:27;27.90;42.60
80250;DHT22;69561;37.974;23.708;2023-06-01T07:30:53;27.80;42.40
80250;DHT22;69561;37.974;23.708;2023-06-01T07:33:19;27.80;42.40
80250;DHT22;69561;37.974;23.708;2023-06-01T07:35:45;27.80;42.40
80250;DHT22;69561;37.974;23.708;2023-06-01T07:38:11;27.90;42.30
80250;DHT22;69561;37.974;23.708;2023-06-01T07:40:38;27.90;42.40
80250;DHT22;69561;37.974;23.708;2023-06-01T07:43:04;27.90;41.90
80250;DHT22;69561;37.974;23.708;2023-06-01T07:45:30;27.90;41.80
80250;DHT22;69561;37.974;23.708;2023-06-01T07:47:55;27.80;42.00
80250;DHT22;69561;37.974;23.708;2023-06-01T07:50:21;27.70;42.00
80250;DHT22;69561;37.974;23.708;2023-06-01T07:52:53;27.80;42.00
80250;DHT22;69561;37.974;23.708;2023-06-01T07:55:19;27.70;41.80
80250;DHT22;69561;37.974;23.708;2023-06-01T07:57:45;27.70;41.70
80250;DHT22;69561;37.974;23.708;2023-06-01T08:00:11;27.80;41.50
80250;DHT22;69561;37.974;23.708;2023-06-01T08:02:38;27.70;41.20
80250;DHT22;69561;37.974;23.708;2023-06-01T08:05:04;27.70;41.00
80250;DHT22;69561;37.974;23.708;2023-06-01T08:07:30;27.70;41.10
80250;DHT22;69561;37.974;23.708;2023-06-01T08:09:56;27.70;41.00
80250;DHT22;69561;37.974;23.708;2023-06-01T08:12:23;27.70;41.10
80250;DHT22;69561;37.974;23.708;2023-06-01T08:14:49;27.70;40.60
80250;DHT22;69561;37.974;23.708;2023-06-01T08:17:14;27.70;40.30
80250;DHT22;69561;37.974;23.708;2023-06-01T08:19:41;27.70;40.00
80250;DHT22;69561;37.974;23.708;2023-06-01T08:22:07;27.80;38.70
80250;DHT22;69561;37.974;23.708;2023-06-01T08:24:33;27.80;38.00
80250;DHT22;69561;37.974;23.708;2023-06-01T08:26:59;27.80;36.90
80250;DHT22;69561;37.974;23.708;2023-06-01T08:29:26;27.80;36.50
80250;DHT22;69561;37.974;23.708;2023-06-01T08:31:52;27.80;36.30
80250;DHT22;69561;37.974;23.708;2023-06-01T08:34:18;27.80;35.60
80250;DHT22;69561;37.974;23.708;2023-06-01T08:36:45;27.80;35.30
80250;DHT22;69561;37.974;23.708;2023-06-01T08:39:23;27.70;35.10
80250;DHT22;69561;37.974;23.708;2023-06-01T08:42:19;27.70;35.20
80250;DHT22;69561;37.974;23.708;2023-06-01T08:44:46;27.70;34.40
80250;DHT22;69561;37.974;23.708;2023-06-01T08:47:13;27.70;34.20
80250;DHT22;69561;37.974;23.708;2023-06-01T08:49:41;27.70;34.30
80250;DHT22;69561;37.974;23.708;2023-06-01T08:52:12;27.70;34.10
80250;DHT22;69561;37.974;23.708;2023-06-01T08:54:38;27.70;33.50
80250;DHT22;69561;37.974;23.708;2023-06-01T08:57:05;27.80;33.30
80250;DHT22;69561;37.974;23.708;2023-06-01T08:59:34;27.70;33.00
80250;DHT22;69561;37.974;23.708;2023-06-01T09:01:59;27.60;32.70
80250;DHT22;69561;37.974;23.708;2023-06-01T09:04:28;27.70;32.20
80250;DHT22;69561;37.974;23.708;2023-06-01T09:06:59;27.80;32.20
80250;DHT22;69561;37.974;23.708;2023-06-01T09:09:25;27.80;32.20
80250;DHT22;69561;37.974;23.708;2023-06-01T09:12:19;27.80;32.00
80250;DHT22;69561;37.974;23.708;2023-06-01T09:14:45;27.90;31.90
80250;DHT22;69561;37.974;23.708;2023-06-01T09:17:22;27.90;32.00
80250;DHT22;69561;37.974;23.708;2023-06-01T09:19:53;27.90;31.60
80250;DHT22;69561;37.974;23.708;2023-06-01T09:22:20;28.00;31.60
80250;DHT22;69561;37.974;23.708;2023-06-01T09:25:04;27.90;31.40
80250;DHT22;69561;37.974;23.708;2023-06-01T09:27:47;28.00;30.90
80250;DHT22;69561;37.974;23.708;2023-06-01T09:30:15;28.00;31.00
80250;DHT22;69561;37.974;23.708;2023-06-01T09:32:41;28.00;31.30
80250;DHT22;69561;37.974;23.708;2023-06-01T09:35:08;28.00;31.30
80250;DHT22;69561;37.974;23.708;2023-06-01T09:37:36;28.00;31.40
80250;DHT22;69561;37.974;23.708;2023-06-01T09:40:02;28.00;31.00
80250;DHT22;69561;37.974;23.708;2023-06-01T09:42:33;28.00;31.00
80250;DHT22;69561;37.974;23.708;2023-06-01T09:45:36;28.00;30.70
80250;DHT22;69561;37.974;23.708;2023-06-01T09:48:16;28.00;31.70
80250;DHT22;69561;37.974;23.708;2023-06-01T09:50:43;28.00;30.30
80250;DHT22;69561;37.974;23.708;2023-06-01T09:53:09;28.00;30.50
80250;DHT22;69561;37.974;23.708;2023-06-01T09:55:35;28.00;30.60
80250;DHT22;69561;37.974;23.708;2023-06-01T09:58:19;28.10;30.50
80250;DHT22;69561;37.974;23.708;2023-06-01T10:00:47;28.00;29.80
80250;DHT22;69561;37.974;23.708;2023-06-01T10:03:17;28.00;29.70
80250;DHT22;69561;37.974;23.708;2023-06-01T10:05:44;28.10;29.80
80250;DHT22;69561;37.974;23.708;2023-06-01T10:08:15;28.00;29.60
80250;DHT22;69561;37.974;23.708;2023-06-01T10:10:44;28.10;29.80
80250;DHT22;69561;37.974;23.708;2023-06-01T10:13:11;28.10;30.00
80250;DHT22;69561;37.974;23.708;2023-06-01T10:15:37;28.10;30.00
80250;DHT22;69561;37.974;23.708;2023-06-01T10:18:04;28.10;30.00
80250;DHT22;69561;37.974;23.708;2023-06-01T10:20:34;28.10;30.00
80250;DHT22;69561;37.974;23.708;2023-06-01T10:23:01;28.20;30.40
80250;DHT22;69561;37.974;23.708;2023-06-01T10:25:40;28.10;30.70
80250;DHT22;69561;37.974;23.708;2023-06-01T10:28:10;28.10;31.10
80250;DHT22;69561;37.974;23.708;2023-06-01T10:30:39;28.20;31.30
80250;DHT22;69561;37.974;23.708;2023-06-01T10:33:14;28.10;31.20
80250;DHT22;69561;37.974;23.708;2023-06-01T10:38:21;28.20;30.90
80250;DHT22;69561;37.974;23.708;2023-06-01T10:40:52;28.10;30.90
80250;DHT22;69561;37.974;23.708;2023-06-01T10:46:02;28.20;30.80
80250;DHT22;69561;37.974;23.708;2023-06-01T10:48:51;28.30;30.90
80250;DHT22;69561;37.974;23.708;2023-06-01T10:51:19;28.30;31.00
80250;DHT22;69561;37.974;23.708;2023-06-01T10:53:48;28.30;31.30
80250;DHT22;69561;37.974;23.708;2023-06-01T10:56:23;28.30;31.30
80250;DHT22;69561;37.974;23.708;2023-06-01T11:01:41;28.20;30.80
80250;DHT22;69561;37.974;23.708;2023-06-01T11:04:07;28.20;31.10
80250;DHT22;69561;37.974;23.708;2023-06-01T11:06:35;28.20;31.20
80250;DHT22;69561;37.974;23.708;2023-06-01T11:09:09;28.20;31.80
80250;DHT22;69561;37.974;23.708;2023-06-01T11:14:19;28.30;30.40
80250;DHT22;69561;37.974;23.708;2023-06-01T11:16:46;28.30;29.60
80250;DHT22;69561;37.974;23.708;2023-06-01T11:19:20;28.40;30.00
80250;DHT22;69561;37.974;23.708;2023-06-01T11:21:51;28.40;30.30
80250;DHT22;69561;37.974;23.708;2023-06-01T11:24:19;28.40;30.70
80250;DHT22;69561;37.974;23.708;2023-06-01T11:26:49;28.40;30.40
80250;DHT22;69561;37.974;23.708;2023-06-01T11:29:22;28.40;30.50
80250;DHT22;69561;37.974;23.708;2023-06-01T11:31:49;28.40;30.80
80250;DHT22;69561;37.974;23.708;2023-06-01T11:34:17;28.40;31.20
80250;DHT22;69561;37.974;23.708;2023-06-01T11:36:49;28.50;31.50
80250;DHT22;69561;37.974;23.708;2023-06-01T11:39:26;28.50;31.30
80250;DHT22;69561;37.974;23.708;2023-06-01T11:44:38;28.50;30.70
80250;DHT22;69561;37.974;23.708;2023-06-01T11:47:04;28.60;30.30
80250;DHT22;69561;37.974;23.708;2023-06-01T11:49:47;28.60;30.30
80250;DHT22;69561;37.974;23.708;2023-06-01T11:52:15;28.60;30.50
80250;DHT22;69561;37.974;23.708;2023-06-01T11:54:41;28.60;30.40
80250;DHT22;69561;37.974;23.708;2023-06-01T11:57:07;28.60;30.30
80250;DHT22;69561;37.974;23.708;2023-06-01T11:59:41;28.70;30.10
80250;DHT22;69561;37.974;23.708;2023-06-01T12:02:27;28.70;30.00
80250;DHT22;69561;37.974;23.708;2023-06-01T12:05:05;28.70;29.90
80250;DHT22;69561;37.974;23.708;2023-06-01T12:07:48;28.60;29.80
80250;DHT22;69561;37.974;23.708;2023-06-01T12:10:18;28.60;29.90
80250;DHT22;69561;37.974;23.708;2023-06-01T12:12:45;28.70;30.00
80250;DHT22;69561;37.974;23.708;2023-06-01T12:15:14;28.70;29.70
80250;DHT22;69561;37.974;23.708;2023-06-01T12:17:54;28.70;29.70
80250;DHT22;69561;37.974;23.708;2023-06-01T12:22:56;28.60;30.00
80250;DHT22;69561;37.974;23.708;2023-06-01T12:25:23;28.60;30.00
80250;DHT22;69561;37.974;23.708;2023-06-01T12:28:07;28.60;30.00
80250;DHT22;69561;37.974;23.708;2023-06-01T12:30:36;28.60;30.00
80250;DHT22;69561;37.974;23.708;2023-06-01T12:33:03;28.60;30.30
80250;DHT22;69561;37.974;23.708;2023-06-01T12:35:31;28.50;30.40
80250;DHT22;69561;37.974;23.708;2023-06-01T12:38:10;28.60;30.40
80250;DHT22;69561;37.974;23.708;2023-06-01T12:40:37;28.50;30.60
80250;DHT22;69561;37.974;23.708;2023-06-01T12:43:04;28.50;30.70
80250;DHT22;69561;37.974;23.708;2023-06-01T12:45:37;28.40;30.90
80250;DHT22;69561;37.974;23.708;2023-06-01T12:48:04;28.40;30.70
80250;DHT22;69561;37.974;23.708;2023-06-01T12:50:30;28.40;30.80
80250;DHT22;69561;37.974;23.708;2023-06-01T12:52:55;28.50;30.80
80250;DHT22;69561;37.974;23.708;2023-06-01T12:55:21;28.40;30.90
80250;DHT22;69561;37.974;23.708;2023-06-01T12:57:56;28.40;30.90
80250;DHT22;69561;37.974;23.708;2023-06-01T13:00:23;28.30;30.90
80250;DHT22;69561;37.974;23.708;2023-06-01T13:02:48;28.40;30.90
80250;DHT22;69561;37.974;23.708;2023-06-01T13:05:16;28.40;31.00
80250;DHT22;69561;37.974;23.708;2023-06-01T13:07:45;28.40;30.90
80250;DHT22;69561;37.974;23.708;2023-06-01T13:10:12;28.30;31.00
80250;DHT22;69561;37.974;23.708;2023-06-01T13:12:38;28.30;30.90
80250;DHT22;69561;37.974;23.708;2023-06-01T13:15:06;28.30;30.80
80250;DHT22;69561;37.974;23.708;2023-06-01T13:17:34;28.30;30.90
80250;DHT22;69561;37.974;23.708;2023-06-01T13:20:00;28.30;30.80
80250;DHT22;69561;37.974;23.708;2023-06-01T13:22:27;28.30;30.70
80250;DHT22;69561;37.974;23.708;2023-06-01T13:24:52;28.20;30.80
80250;DHT22;69561;37.974;23.708;2023-06-01T13:27:18;28.20;30.80
80250;DHT22;69561;37.974;23.708;2023-06-01T13:29:44;28.20;30.90
80250;DHT22;69561;37.974;23.708;2023-06-01T13:32:09;28.30;30.80
80250;DHT22;69561;37.974;23.708;2023-06-01T13:34:36;28.30;30.70
80250;DHT22;69561;37.974;23.708;2023-06-01T13:37:02;28.20;30.60
80250;DHT22;69561;37.974;23.708;2023-06-01T13:39:27;28.20;30.80
80250;DHT22;69561;37.974;23.708;2023-06-01T13:41:54;28.20;30.70
80250;DHT22;69561;37.974;23.708;2023-06-01T13:44:19;28.10;30.60
80250;DHT22;69561;37.974;23.708;2023-06-01T13:46:45;28.10;30.50
80250;DHT22;69561;37.974;23.708;2023-06-01T13:49:11;28.20;30.50
80250;DHT22;69561;37.974;23.708;2023-06-01T13:51:36;28.20;30.50
80250;DHT22;69561;37.974;23.708;2023-06-01T13:54:11;28.20;30.50
80250;DHT22;69561;37.974;23.708;2023-06-01T13:56:39;28.20;30.30
80250;DHT22;69561;37.974;23.708;2023-06-01T13:59:05;28.20;30.40
80250;DHT22;69561;37.974;23.708;2023-06-01T14:01:30;28.20;30.40
80250;DHT22;69561;37.974;23.708;2023-06-01T14:03:56;28.20;30.50
80250;DHT22;69561;37.974;23.708;2023-06-01T14:06:22;28.20;30.10
80250;DHT22;69561;37.974;23.708;2023-06-01T14:08:49;28.20;30.00
80250;DHT22;69561;37.974;23.708;2023-06-01T14:11:15;28.20;30.00
80250;DHT22;69561;37.974;23.708;2023-06-01T14:13:41;28.10;30.00
80250;DHT22;69561;37.974;23.708;2023-06-01T14:16:06;28.10;30.00
80250;DHT22;69561;37.974;23.708;2023-06-01T14:18:32;28.20;30.00
80250;DHT22;69561;37.974;23.708;2023-06-01T14:20:58;28.20;30.10
80250;DHT22;69561;37.974;23.708;2023-06-01T14:23:25;28.20;30.20
80250;DHT22;69561;37.974;23.708;2023-06-01T14:25:51;28.10;30.00
80250;DHT22;69561;37.974;23.708;2023-06-01T14:28:16;28.10;31.10
80250;DHT22;69561;37.974;23.708;2023-06-01T14:30:42;28.20;30.10
80250;DHT22;69561;37.974;23.708;2023-06-01T14:33:08;28.10;30.10
80250;DHT22;69561;37.974;23.708;2023-06-01T14:35:34;28.10;30.00
80250;DHT22;69561;37.974;23.708;2023-06-01T14:37:59;28.20;30.00
80250;DHT22;69561;37.974;23.708;2023-06-01T14:40:25;28.20;30.00
80250;DHT22;69561;37.974;23.708;2023-06-01T14:42:51;28.20;30.00
80250;DHT22;69561;37.974;23.708;2023-06-01T14:45:17;28.20;30.10
80250;DHT22;69561;37.974;23.708;2023-06-01T14:47:44;28.20;30.10
80250;DHT22;69561;37.974;23.708;2023-06-01T14:50:10;28.20;30.20
80250;DHT22;69561;37.974;23.708;2023-06-01T14:52:36;28.10;30.10
80250;DHT22;69561;37.974;23.708;2023-06-01T14:55:02;28.10;30.20
80250;DHT22;69561;37.974;23.708;2023-06-01T14:57:28;28.10;30.30
80250;DHT22;69561;37.974;23.708;2023-06-01T14:59:53;28.00;30.40
80250;DHT22;69561;37.974;23.708;2023-06-01T15:02:19;28.00;30.40
80250;DHT22;69561;37.974;23.708;2023-06-01T15:04:45;28.00;30.30
80250;DHT22;69561;37.974;23.708;2023-06-01T15:07:13;28.00;30.50
80250;DHT22;69561;37.974;23.708;2023-06-01T15:09:39;28.00;30.60
80250;DHT22;69561;37.974;23.708;2023-06-01T15:12:05;28.00;30.70
80250;DHT22;69561;37.974;23.708;2023-06-01T15:14:30;27.90;30.90
80250;DHT22;69561;37.974;23.708;2023-06-01T15:16:56;28.00;31.00
80250;DHT22;69561;37.974;23.708;2023-06-01T15:19:22;27.90;31.00
80250;DHT22;69561;37.974;23.708;2023-06-01T15:21:47;27.90;31.20
80250;DHT22;69561;37.974;23.708;2023-06-01T15:24:13;27.90;31.10
80250;DHT22;69561;37.974;23.708;2023-06-01T15:26:41;27.90;31.20
80250;DHT22;69561;37.974;23.708;2023-06-01T15:29:07;27.90;31.20
80250;DHT22;69561;37.974;23.708;2023-06-01T15:31:32;27.80;31.20
80250;DHT22;69561;37.974;23.708;2023-06-01T15:33:58;27.80;31.20
80250;DHT22;69561;37.974;23.708;2023-06-01T15:36:24;27.90;31.20
80250;DHT22;69561;37.974;23.708;2023-06-01T15:38:49;27.90;31.20
80250;DHT22;69561;37.974;23.708;2023-06-01T15:41:15;27.90;31.20
80250;DHT22;69561;37.974;23.708;2023-06-01T15:43:41;27.90;31.20